Athena, Oregon
Current Conditions -  °F | °C
As of 7:53 PM on Friday 24 Oct 2014 (Local Time) from KPDT Reporting Station
Few Clouds Few Clouds  
Wind Chill: 50°   Ceiling: Unl
Heat Index: 50°   Visibility: 10mi
Dew Point: 47°   Wind: 6mph
Humidity: 89%   Direction: 130°SE
Pressure: 29.89"   Gusts: NA
Location:  45.81°N, 118.49°W
Report Text: KPDT 250253Z 13005KT 10SM FEW110 10/08 A2989 RMK AO2 SLP119 60000 T01000083 58019
Loading
Personal Weather Stations






























Interactive Weather Map
Tropical Storm Tracking
New forecast layout! Learn more

10-Day Weather Forecast

Advertisements
Track Severe Weather on mobile